Time,TemperatureF,DewpointF,PressureIn,WindDirection,WindDirectionDegrees,WindSpeedMPH,WindSpeedGustMPH,Humidity,HourlyPrecipIn,Conditions,Clouds,dailyrainin,SoftwareType,DateUTC
2013-03-16 00:12:00,45.0,38.8,30.03,East,80,0.0,0.0,79,0.00,,,0.00,meteobridge,2013-03-16 07:12:00,
2013-03-16 00:27:00,45.0,38.8,30.03,SE,139,0.9,0.9,79,0.00,,,0.00,meteobridge,2013-03-16 07:27:00,
2013-03-16 00:42:00,44.8,38.7,30.03,SSE,157,0.0,0.0,79,0.00,,,0.00,meteobridge,2013-03-16 07:42:00,
2013-03-16 00:58:00,45.0,38.8,30.02,SSE,159,0.0,0.0,79,0.00,,,0.00,meteobridge,2013-03-16 07:58:00,
2013-03-16 01:13:00,45.1,39.0,30.02,South,186,2.0,2.9,79,0.00,,,0.00,meteobridge,2013-03-16 08:13:00,
2013-03-16 01:28:00,45.0,39.2,30.01,SSE,150,0.0,0.0,80,0.00,,,0.00,meteobridge,2013-03-16 08:28:00,
2013-03-16 01:43:00,45.0,39.2,30.02,South,170,0.0,2.0,80,0.00,,,0.00,meteobridge,2013-03-16 08:43:00,
2013-03-16 01:58:00,45.0,39.2,30.02,SE,138,2.0,4.0,80,0.00,,,0.00,meteobridge,2013-03-16 08:58:00,
2013-03-16 02:13:00,44.8,39.0,30.01,SSW,192,0.9,2.0,80,0.00,,,0.00,meteobridge,2013-03-16 09:13:00,
2013-03-16 02:28:00,44.4,38.7,30.01,SSE,154,0.9,2.9,80,0.00,,,0.00,meteobridge,2013-03-16 09:28:00,
2013-03-16 02:43:00,44.2,38.8,30.01,South,185,0.0,0.9,81,0.00,,,0.00,meteobridge,2013-03-16 09:43:00,
2013-03-16 02:58:00,43.7,38.3,30.00,SE,136,2.0,4.0,81,0.00,,,0.00,meteobridge,2013-03-16 09:58:00,
2013-03-16 03:13:00,43.5,38.1,30.00,SSE,158,0.0,0.0,81,0.00,,,0.00,meteobridge,2013-03-16 10:13:00,
2013-03-16 03:29:00,43.2,38.1,30.00,South,174,2.0,2.0,82,0.00,,,0.00,meteobridge,2013-03-16 10:29:00,
2013-03-16 03:44:00,42.6,37.8,29.99,SSE,167,2.0,2.9,83,0.00,,,0.00,meteobridge,2013-03-16 10:44:00,
2013-03-16 03:59:00,42.6,38.1,29.98,SSE,158,0.0,0.9,84,0.00,,,0.00,meteobridge,2013-03-16 10:59:00,
2013-03-16 04:14:00,42.6,37.8,29.98,SE,138,0.9,2.0,83,0.00,,,0.00,meteobridge,2013-03-16 11:14:00,
2013-03-16 04:29:00,42.4,37.6,29.98,SW,226,2.0,4.0,83,0.00,,,0.00,meteobridge,2013-03-16 11:29:00,
2013-03-16 04:44:00,42.3,37.4,29.97,SE,127,4.0,4.9,83,0.00,,,0.00,meteobridge,2013-03-16 11:44:00,
2013-03-16 04:59:00,42.3,37.4,29.98,SSE,157,0.9,2.0,83,0.00,,,0.00,meteobridge,2013-03-16 11:59:00,
2013-03-16 05:14:00,42.3,37.4,29.97,SE,129,0.0,2.9,83,0.00,,,0.00,meteobridge,2013-03-16 12:14:00,
2013-03-16 05:29:00,42.3,37.4,29.98,SSE,167,0.9,2.0,83,0.00,,,0.00,meteobridge,2013-03-16 12:29:00,
2013-03-16 05:44:00,42.3,37.4,29.97,SE,140,0.0,6.0,83,0.00,,,0.00,meteobridge,2013-03-16 12:44:00,
2013-03-16 05:59:00,41.9,37.4,29.97,SE,129,4.0,4.0,84,0.00,,,0.00,meteobridge,2013-03-16 12:59:00,
2013-03-16 06:14:00,41.7,37.2,29.97,SE,141,0.9,2.0,84,0.00,,,0.00,meteobridge,2013-03-16 13:14:00,
2013-03-16 06:29:00,41.5,37.0,29.96,SSE,158,0.0,0.0,84,0.00,,,0.00,meteobridge,2013-03-16 13:29:00,
2013-03-16 06:44:00,41.5,37.4,29.96,SE,146,0.0,0.0,85,0.00,,,0.00,meteobridge,2013-03-16 13:44:00,
2013-03-16 06:59:00,41.7,37.2,29.96,SE,143,0.0,0.0,84,0.00,,,0.00,meteobridge,2013-03-16 13:59:00,
2013-03-16 07:14:00,41.7,37.6,29.96,SE,140,0.0,2.0,85,0.00,,,0.00,meteobridge,2013-03-16 14:14:00,
2013-03-16 07:29:00,41.5,37.4,29.96,SSE,157,0.9,0.9,85,0.00,,,0.00,meteobridge,2013-03-16 14:29:00,
2013-03-16 07:45:00,41.4,37.6,29.95,South,176,0.0,2.0,86,0.00,,,0.00,meteobridge,2013-03-16 14:45:00,
2013-03-16 08:00:00,41.7,37.2,29.95,SSE,161,0.9,2.0,84,0.00,,,0.00,meteobridge,2013-03-16 15:00:00,
2013-03-16 08:15:00,41.9,37.4,29.95,SE,131,2.9,4.9,84,0.00,,,0.00,meteobridge,2013-03-16 15:15:00,
2013-03-16 08:30:00,42.1,37.6,29.95,SSE,159,0.0,4.9,84,0.00,,,0.00,meteobridge,2013-03-16 15:30:00,
2013-03-16 08:45:00,42.3,37.8,29.95,SE,145,0.0,0.9,84,0.00,,,0.00,meteobridge,2013-03-16 15:45:00,
2013-03-16 09:00:00,42.8,38.3,29.94,SE,128,0.0,2.0,84,0.00,,,0.00,meteobridge,2013-03-16 16:00:00,
2013-03-16 09:15:00,43.3,38.5,29.94,SSE,167,0.0,2.9,83,0.00,,,0.00,meteobridge,2013-03-16 16:15:00,
2013-03-16 09:31:00,45.0,39.7,29.94,SE,141,0.0,0.9,82,0.00,,,0.00,meteobridge,2013-03-16 16:31:00,
2013-03-16 09:46:00,45.7,39.9,29.94,SE,146,2.0,2.9,80,0.00,,,0.00,meteobridge,2013-03-16 16:46:00,
2013-03-16 10:01:00,45.3,39.6,29.94,SSW,199,0.0,4.0,80,0.00,,,0.00,meteobridge,2013-03-16 17:01:00,
2013-03-16 10:15:00,46.0,39.9,29.94,South,171,0.0,2.0,79,0.00,,,0.00,meteobridge,2013-03-16 17:15:00,
2013-03-16 10:31:00,46.2,39.0,29.93,SE,133,0.9,2.0,76,0.00,,,0.00,meteobridge,2013-03-16 17:31:00,
2013-03-16 10:46:00,46.8,38.8,29.93,South,190,0.9,4.9,74,0.00,,,0.00,meteobridge,2013-03-16 17:46:00,
2013-03-16 11:01:00,48.0,39.4,29.92,SE,128,0.0,6.0,72,0.00,,,0.00,meteobridge,2013-03-16 18:01:00,
2013-03-16 11:16:00,48.6,39.6,29.92,South,191,0.9,6.9,71,0.00,,,0.00,meteobridge,2013-03-16 18:16:00,
2013-03-16 11:31:00,48.6,39.6,29.91,West,272,0.0,2.0,71,0.00,,,0.00,meteobridge,2013-03-16 18:31:00,
2013-03-16 11:46:00,48.4,39.0,29.91,SSE,150,0.0,2.9,70,0.00,,,0.00,meteobridge,2013-03-16 18:46:00,
2013-03-16 12:01:00,48.7,39.0,29.91,SE,139,0.0,2.9,69,0.00,,,0.00,meteobridge,2013-03-16 19:01:00,
2013-03-16 12:16:00,49.5,39.0,29.90,SSE,160,0.9,2.9,67,0.00,,,0.00,meteobridge,2013-03-16 19:16:00,
2013-03-16 12:31:00,49.5,39.0,29.90,SSW,200,0.9,0.9,67,0.00,,,0.00,meteobridge,2013-03-16 19:31:00,
2013-03-16 12:46:00,49.8,38.8,29.88,SSE,162,0.9,2.9,66,0.00,,,0.00,meteobridge,2013-03-16 19:46:00,
2013-03-16 13:01:00,51.3,39.0,29.88,SSE,154,0.9,6.9,63,0.00,,,0.00,meteobridge,2013-03-16 20:01:00,
2013-03-16 13:16:00,52.0,39.7,29.87,WNW,290,0.0,0.9,63,0.00,,,0.00,meteobridge,2013-03-16 20:16:00,
2013-03-16 13:31:00,52.0,39.0,29.85,SSE,155,0.0,6.0,61,0.00,,,0.00,meteobridge,2013-03-16 20:31:00,
2013-03-16 13:46:00,52.0,38.1,29.85,South,178,0.0,2.9,59,0.00,,,0.00,meteobridge,2013-03-16 20:46:00,
2013-03-16 14:01:00,52.0,39.0,29.83,West,280,0.9,2.9,61,0.00,,,0.00,meteobridge,2013-03-16 21:01:00,
2013-03-16 14:16:00,50.4,40.3,29.82,West,269,0.0,0.9,68,0.00,,,0.00,meteobridge,2013-03-16 21:16:00,
2013-03-16 14:31:00,50.7,39.4,29.81,SSE,147,0.9,4.9,65,0.00,,,0.00,meteobridge,2013-03-16 21:31:00,
2013-03-16 14:46:00,52.7,37.4,29.80,SW,218,4.0,4.0,56,0.00,,,0.00,meteobridge,2013-03-16 21:46:00,
2013-03-16 15:01:00,52.5,37.2,29.80,SE,141,0.9,4.0,56,0.00,,,0.00,meteobridge,2013-03-16 22:01:00,
2013-03-16 15:16:00,51.4,36.7,29.79,NNE,28,0.9,4.0,57,0.00,,,0.00,meteobridge,2013-03-16 22:16:00,
2013-03-16 15:31:00,51.1,39.7,29.78,SSE,158,2.0,4.9,65,0.00,,,0.00,meteobridge,2013-03-16 22:31:00,
2013-03-16 15:46:00,49.8,38.5,29.78,South,173,0.0,2.9,65,0.00,,,0.00,meteobridge,2013-03-16 22:46:00,
2013-03-16 16:01:00,49.1,37.8,29.78,West,274,0.9,4.9,65,0.00,,,0.00,meteobridge,2013-03-16 23:01:00,
2013-03-16 16:16:00,49.5,37.8,29.77,NNW,333,0.9,2.9,64,0.00,,,0.00,meteobridge,2013-03-16 23:16:00,
2013-03-16 16:31:00,49.1,38.3,29.78,South,188,2.9,4.0,66,0.00,,,0.00,meteobridge,2013-03-16 23:31:00,
2013-03-16 16:46:00,46.8,37.6,29.77,WNW,290,0.0,2.9,70,0.00,,,0.00,meteobridge,2013-03-16 23:46:00,
2013-03-16 17:01:00,47.5,37.4,29.76,WSW,252,0.0,2.0,68,0.00,,,0.00,meteobridge,2013-03-17 00:01:00,
2013-03-16 17:16:00,47.7,35.2,29.75,West,261,0.9,2.0,62,0.00,,,0.00,meteobridge,2013-03-17 00:16:00,
2013-03-16 17:31:00,47.7,35.6,29.75,WNW,283,0.0,0.9,63,0.00,,,0.00,meteobridge,2013-03-17 00:31:00,
2013-03-16 17:47:00,47.5,35.1,29.75,SSW,206,0.0,4.0,62,0.00,,,0.00,meteobridge,2013-03-17 00:47:00,
2013-03-16 18:02:00,44.4,37.6,29.78,WNW,290,0.0,4.0,77,0.01,,,0.01,meteobridge,2013-03-17 01:02:00,
2013-03-16 18:17:00,40.6,37.0,29.77,NW,306,0.0,4.9,87,0.04,,,0.04,meteobridge,2013-03-17 01:17:00,
2013-03-16 18:32:00,39.7,37.0,29.75,WSW,241,0.0,0.9,90,0.06,,,0.06,meteobridge,2013-03-17 01:32:00,
2013-03-16 18:47:00,39.6,37.2,29.74,SE,140,0.9,0.9,91,0.06,,,0.06,meteobridge,2013-03-17 01:47:00,
2013-03-16 19:02:00,39.6,37.8,29.74,SE,131,0.0,0.0,93,0.05,,,0.06,meteobridge,2013-03-17 02:02:00,
2013-03-16 19:17:00,39.9,37.6,29.73,SSE,151,0.9,0.9,91,0.02,,,0.06,meteobridge,2013-03-17 02:17:00,
2013-03-16 19:32:00,40.5,37.4,29.73,SSW,193,0.0,2.0,89,0.00,,,0.06,meteobridge,2013-03-17 02:32:00,
2013-03-16 19:47:00,40.6,37.0,29.72,SE,143,0.0,4.0,87,0.00,,,0.06,meteobridge,2013-03-17 02:47:00,
2013-03-16 20:02:00,40.6,37.0,29.72,SSE,148,2.0,2.0,87,0.00,,,0.06,meteobridge,2013-03-17 03:02:00,
2013-03-16 20:17:00,40.6,36.9,29.71,SE,141,0.9,2.0,86,0.00,,,0.06,meteobridge,2013-03-17 03:17:00,
2013-03-16 20:32:00,40.3,36.7,29.71,South,184,2.0,4.0,87,0.00,,,0.06,meteobridge,2013-03-17 03:32:00,
2013-03-16 20:47:00,40.3,36.7,29.71,SSE,162,0.0,2.0,87,0.00,,,0.06,meteobridge,2013-03-17 03:47:00,
2013-03-16 21:02:00,39.9,36.3,29.71,SSW,211,0.0,0.9,87,0.00,,,0.06,meteobridge,2013-03-17 04:02:00,
2013-03-16 21:17:00,39.7,36.5,29.70,SSE,156,2.0,2.0,88,0.00,,,0.06,meteobridge,2013-03-17 04:17:00,
2013-03-16 21:32:00,39.9,36.7,29.69,South,186,0.0,2.9,88,0.00,,,0.06,meteobridge,2013-03-17 04:32:00,
2013-03-16 21:47:00,39.9,36.3,29.69,South,188,0.9,6.9,87,0.00,,,0.06,meteobridge,2013-03-17 04:47:00,
2013-03-16 22:02:00,39.7,36.1,29.68,SW,219,0.0,0.9,87,0.00,,,0.06,meteobridge,2013-03-17 05:02:00,
2013-03-16 22:18:00,39.9,36.3,29.68,WNW,296,0.0,0.9,87,0.00,,,0.06,meteobridge,2013-03-17 05:18:00,
2013-03-16 22:33:00,39.9,35.4,29.69,ESE,122,0.0,0.0,84,0.00,,,0.06,meteobridge,2013-03-17 05:33:00,
2013-03-16 22:48:00,40.5,33.8,29.68,SSE,164,0.0,2.0,77,0.00,,,0.06,meteobridge,2013-03-17 05:48:00,
2013-03-16 23:03:00,40.1,30.7,29.69,WSW,243,0.9,8.9,69,0.00,,,0.06,meteobridge,2013-03-17 06:03:00,
2013-03-16 23:18:00,38.3,31.6,29.70,West,266,0.0,8.1,77,0.00,,,0.06,meteobridge,2013-03-17 06:18:00,
2013-03-16 23:33:00,36.1,31.8,29.69,SSE,148,0.0,0.9,84,0.00,,,0.06,meteobridge,2013-03-17 06:33:00,
2013-03-16 23:48:00,36.0,32.5,29.70,South,189,0.0,0.0,87,0.00,,,0.06,meteobridge,2013-03-17 06:48:00,